»·PEaware :: JBU180 KLGB-KLAS

JBU180 :: KLGB-KLAS

FLIGHT INFORMATION

Flight Status: Arrived
Operator:
JetBlue Airways
More flights by this operator :: More flights under this callsign
Pilot: Taylor M. (19061)
Aircraft: AIRBUS A320
(A320)
More flights by this aircraft type
Origin: KLGB Long Beach
United States
Destination: KLAS McCarran Intl
United States
More flights between these airports :: More routes between these airports
Route: ZOOMM1 MISEN KEPEC6
File this flight plan on PilotEdge
Remarks: PBN / A1B1C1D1O1S1 NAV / RNVD1E2A1 REG / N320SB RMK / SIMBRIEF
Altitude:
(Current/Filed)
31,000ft
Speed:
(Current/Filed)
456kts
Departed: 04-Jun-18 02:31 PM
Arrived: 04-Jun-18 03:22 PM
Distance/Time
Traveled:
201nm/0:51
Distance/Time
To Go:
Arrived

Flight Plot

Page will automatically refresh every two minutes.

Flight plan parsing failed; only flown route is shown


Map Options




Map Legend


Flown Route
Filed Route
Departure Airport
Arrival Airport
Navaid (VOR, NDB)
Fix

Horizontal Profiles

Position Reports

Time Latitude Longitude Heading Altitude Ground
Speed
04-Jun-18 14:12 33.819837 -118.146049 74 42ft 0kts
04-Jun-18 14:13 33.819837 -118.146049 74 42ft 0kts
04-Jun-18 14:14 33.819837 -118.146049 74 42ft 0kts
04-Jun-18 14:15 33.819837 -118.146049 74 42ft 0kts
04-Jun-18 14:16 33.819837 -118.146049 74 42ft 0kts
04-Jun-18 14:17 33.819837 -118.146049 74 42ft 0kts
04-Jun-18 14:18 33.819837 -118.146049 74 42ft 0kts
04-Jun-18 14:19 33.819837 -118.146049 74 42ft 0kts
04-Jun-18 14:20 33.819843 -118.146024 74 42ft 0kts
04-Jun-18 14:21 33.819843 -118.146024 74 42ft 0kts
04-Jun-18 14:22 33.819843 -118.146024 74 42ft 0kts
04-Jun-18 14:23 33.820141 -118.146341 264 42ft 0kts
04-Jun-18 14:24 33.820141 -118.146341 264 42ft 0kts
04-Jun-18 14:25 33.820141 -118.146341 264 42ft 0kts
04-Jun-18 14:26 33.821612 -118.148411 270 45ft 14kts
04-Jun-18 14:27 33.821613 -118.153898 270 52ft 13kts
04-Jun-18 14:28 33.821905 -118.158192 309 56ft 0kts
04-Jun-18 14:29 33.824413 -118.161253 315 61ft 22kts
04-Jun-18 14:30 33.825938 -118.161691 59 64ft 13kts
04-Jun-18 14:31 33.807974 -118.139206 134 960ft 178kts
04-Jun-18 14:32 33.770506 -118.092955 148 3020ft 240kts
04-Jun-18 14:33 33.703122 -118.095462 193 5688ft 269kts
04-Jun-18 14:34 33.630185 -118.115495 192 7018ft 273kts
04-Jun-18 14:35 33.570957 -118.078253 99 8075ft 291kts
04-Jun-18 14:36 33.619936 -118.010339 11 10912ft 328kts
04-Jun-18 14:37 33.718895 -117.988093 10 12299ft 392kts
04-Jun-18 14:38 33.827559 -117.963113 10 14634ft 407kts
04-Jun-18 14:39 33.933849 -117.919984 36 16682ft 421kts
04-Jun-18 14:40 34.027882 -117.833694 37 18560ft 434kts
04-Jun-18 14:41 34.116910 -117.736721 51 20284ft 444kts
04-Jun-18 14:42 34.195362 -117.620128 51 21850ft 453kts
04-Jun-18 14:43 34.275153 -117.501411 51 23240ft 463kts
04-Jun-18 14:44 34.356338 -117.380155 51 24507ft 472kts
04-Jun-18 14:45 34.439003 -117.256251 51 25688ft 480kts
04-Jun-18 14:46 34.523498 -117.129147 52 26737ft 488kts
04-Jun-18 14:47 34.609521 -117.002774 50 28030ft 487kts
04-Jun-18 14:48 34.694320 -116.879347 51 30184ft 466kts
04-Jun-18 14:49 34.776986 -116.757986 51 30580ft 484kts
04-Jun-18 14:50 34.865141 -116.634249 40 28036ft 486kts
04-Jun-18 14:51 34.970731 -116.531833 38 25806ft 488kts
04-Jun-18 14:52 35.075322 -116.430210 38 24190ft 493kts
04-Jun-18 14:53 35.172288 -116.316336 45 23891ft 488kts
04-Jun-18 14:54 35.265489 -116.199461 46 22538ft 472kts
04-Jun-18 14:55 35.355142 -116.086593 46 19885ft 458kts
04-Jun-18 14:56 35.442340 -115.976452 46 17244ft 444kts
04-Jun-18 14:57 35.526576 -115.869718 46 14661ft 427kts
04-Jun-18 14:58 35.600718 -115.775612 47 13711ft 340kts
04-Jun-18 14:59 35.662065 -115.697441 47 13184ft 301kts
04-Jun-18 15:00 35.707947 -115.611056 95 12147ft 307kts
04-Jun-18 15:01 35.694647 -115.509119 102 10600ft 300kts
04-Jun-18 15:02 35.683701 -115.408477 79 9108ft 300kts
04-Jun-18 15:03 35.745504 -115.348142 22 7702ft 300kts
04-Jun-18 15:04 35.819836 -115.312022 22 7083ft 266kts
04-Jun-18 15:05 35.884936 -115.279971 22 7067ft 249kts
04-Jun-18 15:06 35.946392 -115.241329 24 6910ft 251kts
04-Jun-18 15:07 36.007788 -115.205850 24 5980ft 233kts
04-Jun-18 15:08 36.035853 -115.151217 128 5477ft 210kts
04-Jun-18 15:09 35.985420 -115.137120 182 5466ft 192kts
04-Jun-18 15:10 35.960745 -115.177636 305 5471ft 207kts
04-Jun-18 15:11 36.003826 -115.215670 30 5296ft 198kts
04-Jun-18 15:12 36.046606 -115.182592 24 3620ft 184kts
04-Jun-18 15:13 36.090800 -115.155637 31 2533ft 173kts
04-Jun-18 15:14 36.141988 -115.118949 13 3629ft 297kts
04-Jun-18 15:15 36.223276 -115.167157 298 3897ft 341kts
04-Jun-18 15:16 36.206574 -115.252511 193 4423ft 230kts
04-Jun-18 15:17 36.148154 -115.243206 160 4418ft 216kts
04-Jun-18 15:18 36.092253 -115.223782 195 4424ft 195kts
04-Jun-18 15:19 36.039733 -115.222449 169 4171ft 190kts
04-Jun-18 15:20 36.020419 -115.180218 36 3963ft 215kts
04-Jun-18 15:21 36.072441 -115.168884 27 2524ft 190kts
04-Jun-18 15:22 36.098810 -115.154728 301 2084ft 0kts
04-Jun-18 15:23 36.098812 -115.154729 301 2084ft 0kts
04-Jun-18 15:24 36.098872 -115.154846 302 2084ft 0kts
04-Jun-18 15:25 36.099356 -115.158768 281 2096ft 8kts
04-Jun-18 15:26 36.096584 -115.160411 203 2104ft 22kts
04-Jun-18 15:27 36.091850 -115.163249 214 2125ft 18kts
04-Jun-18 15:28 36.092425 -115.163961 6 2126ft 0kts

Navigation Log

Ident Type
Flight plan parsing failed, navigation log unavailable